Phyllis E — WDH6692 — position and weather

sailwx.info

Track history (hours):
 
Tides and Currents Weather Stations Pressure Air Temp Water Temp Dewpoint Dewpoint Depression Visibility Wind Speed Wind Dir Waves Ship Positions

Phyllis E

Owner: Echo Towing Service, Inc., Highlands, TX. More information available from US FCC via Universal Licensing System and Coast Guard Vessel Documentation Center.

Last reported at 2017-Dec-24 03:22 UTC. Time now 2018-Jan-21 22:47 UTC.
Position N 29°30' W 094°52'.
Warning: this ship's position is 28 days out of date.

; draft 2.6 m.

Type: Towing. MMSI: 367640680.

Date/timePositionNaut miles runAvg speedWind from/ knotsBaromVisibWave heightAir tempDewpointWater temp
2017-Dec-24 03:22N 29°30' W 094°52'2 5.9
2017-Dec-24 03:00N 29°32' W 094°54'3 5.6
2017-Dec-24 02:31N 29°34' W 094°55'3 6.2
2017-Dec-24 02:01N 29°37' W 094°57'3 6.3
2017-Dec-24 01:30N 29°40' W 094°59'3 6.0
2017-Dec-24 01:00N 29°42' W 095°01'3 6.0
2017-Dec-24 00:30N 29°44' W 095°03'2 1.5
2017-Dec-23 23:01N 29°46' W 095°05'0 6.3
2017-Dec-23 23:00N 29°46' W 095°05'2 2.7
2017-Dec-23 22:08N 29°44' W 095°03'1 6.1
2017-Dec-23 21:59N 29°44' W 095°02'2 5.0
2017-Dec-23 21:30N 29°42' W 095°01'3 5.3
2017-Dec-23 21:00N 29°40' W 094°59'3 5.8
2017-Dec-23 20:31N 29°37' W 094°57'3 6.8
2017-Dec-23 20:00N 29°34' W 094°56'  
2017-Dec-21 11:58N 29°49' W 093°59'0 0.0
2017-Dec-21 11:28N 29°49' W 093°59'0 0.0
2017-Dec-21 10:59N 29°49' W 093°59'0 0.0
2017-Dec-21 10:25N 29°49' W 093°59'0 0.0
2017-Dec-21 09:53N 29°49' W 093°59'0 0.0
2017-Dec-21 09:25N 29°49' W 093°59'0 0.0
2017-Dec-21 08:59N 29°49' W 093°59'0 0.0
2017-Dec-21 08:21N 29°49' W 093°59'0 0.0
2017-Dec-21 08:00N 29°49' W 093°59'0 0.0
2017-Dec-21 07:30N 29°49' W 093°59'0 0.0
2017-Dec-21 07:00N 29°49' W 093°59'0 0.0
2017-Dec-21 06:29N 29°49' W 093°59'0 0.0
2017-Dec-21 05:59N 29°49' W 093°59'0 0.0
2017-Dec-21 05:30N 29°49' W 093°59'0 0.0
2017-Dec-21 05:00N 29°49' W 093°59'0 0.0
2017-Dec-21 04:30N 29°49' W 093°59'0 0.0
2017-Dec-21 04:00N 29°49' W 093°59'43 3.3
2017-Dec-20 15:04N 29°27' W 094°41'1 4.6
2017-Dec-20 14:57N 29°27' W 094°42'2 3.8
2017-Dec-20 14:28N 29°25' W 094°43'9 0.6
2017-Dec-20 01:09N 29°30' W 094°52'1 5.0
2017-Dec-20 01:00N 29°30' W 094°52'2 4.9
2017-Dec-20 00:30N 29°32' W 094°54'3 5.5
2017-Dec-20 00:00N 29°34' W 094°56'3 5.6
2017-Dec-19 23:30N 29°37' W 094°57'3 5.8
2017-Dec-19 23:00N 29°40' W 094°58'3 5.7
2017-Dec-19 22:30N 29°42' W 095°00'3 5.1
2017-Dec-19 22:00N 29°44' W 095°02'3 5.6
2017-Dec-19 21:30N 29°46' W 095°05'1 0.2
2017-Dec-19 17:17N 29°46' W 095°05'1 2.4
2017-Dec-19 17:00N 29°46' W 095°06'1 0.2
2017-Dec-19 12:23N 29°46' W 095°05'0 0.0
2017-Dec-19 11:55N 29°46' W 095°05'0 0.0
2017-Dec-19 11:30N 29°46' W 095°05'0 0.0
2017-Dec-19 10:55N 29°46' W 095°05'0 0.0
2017-Dec-19 10:16N 29°46' W 095°05'0 0.0
2017-Dec-19 09:55N 29°46' W 095°05'0 0.0
2017-Dec-19 09:26N 29°46' W 095°05'0 0.0
2017-Dec-19 09:00N 29°46' W 095°05'0 0.0
2017-Dec-19 08:30N 29°46' W 095°05'0 0.0
2017-Dec-19 07:58N 29°46' W 095°05'0 0.0
2017-Dec-19 07:15N 29°46' W 095°05'0 0.0
2017-Dec-19 06:58N 29°46' W 095°05'0 0.0
2017-Dec-19 06:30N 29°46' W 095°05'0 0.0
2017-Dec-19 06:00N 29°46' W 095°05'0 0.0
2017-Dec-19 05:27N 29°46' W 095°05'1 1.4
2017-Dec-19 04:30N 29°45' W 095°06'2 4.7
2017-Dec-19 04:00N 29°44' W 095°09'2 3.9
2017-Dec-19 03:27N 29°45' W 095°11'1 1.6
2017-Dec-19 02:58N 29°46' W 095°11'1 2.3
2017-Dec-19 02:19N 29°45' W 095°10'3 5.8
2017-Dec-19 01:44N 29°45' W 095°06'1 3.1
2017-Dec-19 01:28N 29°46' W 095°06'1 0.1
2017-Dec-18 18:21N 29°45' W 095°06'1 1.7
2017-Dec-18 18:00N 29°46' W 095°05'0 0.1
2017-Dec-18 17:30N 29°46' W 095°05'2 0.9
2017-Dec-18 15:20N 29°44' W 095°07'2 7.0
2017-Dec-18 15:00N 29°44' W 095°09'3 6.0
2017-Dec-18 14:30N 29°44' W 095°13'2 3.8
2017-Dec-18 14:00N 29°44' W 095°15'0 0.0
2017-Dec-18 12:34N 29°44' W 095°15'0 0.8
2017-Dec-18 12:30N 29°43' W 095°15'2 4.8
2017-Dec-18 12:00N 29°44' W 095°12'3 5.8
2017-Dec-18 11:29N 29°44' W 095°09'3 6.2
2017-Dec-18 10:59N 29°45' W 095°06'1 0.0
2017-Dec-17 18:54N 29°46' W 095°05'1 1.8
2017-Dec-17 18:10N 29°45' W 095°06'0 0.0
2017-Dec-17 17:57N 29°45' W 095°06'0 0.1
2017-Dec-17 17:29N 29°45' W 095°06'1 3.0
2017-Dec-17 17:00N 29°46' W 095°05'0 0.0
2017-Dec-17 16:17N 29°46' W 095°05'0 0.0
2017-Dec-17 16:00N 29°46' W 095°05'0 0.1
2017-Dec-17 15:18N 29°46' W 095°05'1 0.3
2017-Dec-17 13:03N 29°45' W 095°06'0 6.8
2017-Dec-17 13:00N 29°46' W 095°05'2 0.3
2017-Dec-17 03:34N 29°44' W 095°03'0 7.4
2017-Dec-17 03:30N 29°44' W 095°03'3 5.8
2017-Dec-17 03:00N 29°42' W 095°00'4 7.1
2017-Dec-17 02:30N 29°39' W 094°58'2 4.6
2017-Dec-17 02:00N 29°37' W 094°59'2 4.1
2017-Dec-17 01:30N 29°36' W 095°01'0 0.0
2017-Dec-17 01:00N 29°36' W 095°01'0 0.0
2017-Dec-17 00:30N 29°36' W 095°01'0 0.0
2017-Dec-17 00:00N 29°36' W 095°01'0 0.0
2017-Dec-16 23:30N 29°36' W 095°01'0 0.0
2017-Dec-16 23:00N 29°36' W 095°01'0 0.0
2017-Dec-16 22:30N 29°36' W 095°01'0 0.0
2017-Dec-16 22:00N 29°36' W 095°01'0 0.0
2017-Dec-16 21:30N 29°36' W 095°01'0 0.0
2017-Dec-16 21:00N 29°36' W 095°01'0 0.0
2017-Dec-16 20:30N 29°36' W 095°01'0 0.0
2017-Dec-16 20:00N 29°36' W 095°01'0 0.0
2017-Dec-16 19:30N 29°36' W 095°01'0 0.0
2017-Dec-16 19:00N 29°36' W 095°01'0 0.0
2017-Dec-16 18:30N 29°36' W 095°01'0 0.0
2017-Dec-16 18:00N 29°36' W 095°01'0 0.0
2017-Dec-16 17:30N 29°36' W 095°01'0 0.0
2017-Dec-16 17:00N 29°36' W 095°01'0 0.0
2017-Dec-16 16:30N 29°36' W 095°01'0 0.0
2017-Dec-16 16:00N 29°36' W 095°01'0 0.0
2017-Dec-16 15:30N 29°36' W 095°01'0 0.0
2017-Dec-16 15:00N 29°36' W 095°01'0 0.0
2017-Dec-16 14:30N 29°36' W 095°01'0 0.0
2017-Dec-16 14:00N 29°36' W 095°01'0 0.0
2017-Dec-16 13:30N 29°36' W 095°01'0 0.0
2017-Dec-16 13:00N 29°36' W 095°01'0 0.0
2017-Dec-16 12:30N 29°36' W 095°01'0 0.0
2017-Dec-16 12:00N 29°36' W 095°01'0 0.0
2017-Dec-16 11:30N 29°36' W 095°01'0 0.0
2017-Dec-16 11:00N 29°36' W 095°01'0 0.0
2017-Dec-16 10:30N 29°36' W 095°01'0 0.0
2017-Dec-16 10:00N 29°36' W 095°01'0 0.0
2017-Dec-16 09:30N 29°36' W 095°01'0 0.0
2017-Dec-16 09:00N 29°36' W 095°01'0 0.0
2017-Dec-16 08:30N 29°36' W 095°01'0 0.0
2017-Dec-16 08:00N 29°36' W 095°01'0 0.0
2017-Dec-16 07:30N 29°36' W 095°01'0 0.0
2017-Dec-16 07:00N 29°36' W 095°01'0 0.0
2017-Dec-16 06:30N 29°36' W 095°01'0 0.0
2017-Dec-16 06:00N 29°36' W 095°01'0 0.0
2017-Dec-16 05:30N 29°36' W 095°01'0 0.0
2017-Dec-16 05:00N 29°36' W 095°01'0 0.0
2017-Dec-16 04:30N 29°36' W 095°01'0 0.0
2017-Dec-16 04:00N 29°36' W 095°01'0 0.0
2017-Dec-16 03:30N 29°36' W 095°01'0 0.0
2017-Dec-16 03:00N 29°36' W 095°01'0 0.0
2017-Dec-16 02:30N 29°36' W 095°01'0 0.0
2017-Dec-16 02:00N 29°36' W 095°01'0 0.1
2017-Dec-16 01:30N 29°36' W 095°01'0 0.1
2017-Dec-16 01:00N 29°36' W 095°01'0 0.0
2017-Dec-16 00:30N 29°36' W 095°01'0 0.0
2017-Dec-16 00:00N 29°36' W 095°01'0 0.0
2017-Dec-15 23:30N 29°36' W 095°01'0 0.0
2017-Dec-15 23:00N 29°36' W 095°01'1 2.4
2017-Dec-15 22:30N 29°37' W 094°60'2 4.0
2017-Dec-15 22:00N 29°38' W 094°58'3 5.8
2017-Dec-15 21:30N 29°41' W 094°59'3 5.3
2017-Dec-15 21:00N 29°42' W 095°01'3 5.1
2017-Dec-15 20:30N 29°44' W 095°03'2 5.0
2017-Dec-15 20:00N 29°46' W 095°05'0 0.3
2017-Dec-15 19:27N 29°46' W 095°05'3 2.8
2017-Dec-15 18:33N 29°44' W 095°03'0 6.1
2017-Dec-15 18:30N 29°44' W 095°03'2 4.3
2017-Dec-15 18:00N 29°43' W 095°01'2 4.4
2017-Dec-15 17:30N 29°41' W 094°59'3 5.3
2017-Dec-15 17:00N 29°39' W 094°58'2 4.1
2017-Dec-15 16:30N 29°37' W 094°59'2 4.1
2017-Dec-15 16:00N 29°36' W 095°01'0 0.0
2017-Dec-15 15:30N 29°36' W 095°01'0 0.0
2017-Dec-15 15:00N 29°36' W 095°01'0 0.0
2017-Dec-15 14:30N 29°36' W 095°01'0 0.0
2017-Dec-15 14:00N 29°36' W 095°01'0 0.0
2017-Dec-15 13:30N 29°36' W 095°01'0 0.0
2017-Dec-15 13:00N 29°36' W 095°01'0 0.0
2017-Dec-15 12:30N 29°36' W 095°01'0 0.0
2017-Dec-15 12:00N 29°36' W 095°01'0 0.0
2017-Dec-15 11:30N 29°36' W 095°01'0 0.0
2017-Dec-15 11:00N 29°36' W 095°01'0 0.0
2017-Dec-15 10:30N 29°36' W 095°01'0 0.0
2017-Dec-15 10:00N 29°36' W 095°01'0 0.0
2017-Dec-15 09:30N 29°36' W 095°01'0 0.0
2017-Dec-15 09:00N 29°36' W 095°01'0 0.0
2017-Dec-15 08:30N 29°36' W 095°01'0 0.0
2017-Dec-15 08:00N 29°36' W 095°01'0 0.0
2017-Dec-15 07:30N 29°36' W 095°01'0 0.0
2017-Dec-15 07:00N 29°36' W 095°01'0 0.0
2017-Dec-15 06:30N 29°36' W 095°01'0 0.0
2017-Dec-15 06:00N 29°36' W 095°01'0 0.0
2017-Dec-15 05:30N 29°36' W 095°01'0 0.0
2017-Dec-15 05:00N 29°36' W 095°01'0 0.0
2017-Dec-15 04:30N 29°36' W 095°01'0 0.0
2017-Dec-15 04:00N 29°36' W 095°01'0 0.0
2017-Dec-15 02:30N 29°36' W 095°01'0 0.0
2017-Dec-15 01:00N 29°36' W 095°01'0 0.0
2017-Dec-15 00:30N 29°36' W 095°01'0 0.0
2017-Dec-14 18:31N 29°36' W 095°01'0 0.0
2017-Dec-14 18:00N 29°36' W 095°01'0 0.0
2017-Dec-14 17:30N 29°36' W 095°01'0 0.0
2017-Dec-14 17:00N 29°36' W 095°01'0 0.0
2017-Dec-14 16:30N 29°36' W 095°01'0 0.0
2017-Dec-14 16:00N 29°36' W 095°01'0 0.0
2017-Dec-14 15:00N 29°36' W 095°01'0 0.0
2017-Dec-14 14:30N 29°36' W 095°01'0 0.0
2017-Dec-14 14:00N 29°36' W 095°01'0 0.0
2017-Dec-14 13:30N 29°36' W 095°01'0 0.0
2017-Dec-14 13:00N 29°36' W 095°01'0 0.0
2017-Dec-14 12:30N 29°36' W 095°01'0 0.0
2017-Dec-14 12:00N 29°36' W 095°01'0 0.0
2017-Dec-14 11:30N 29°36' W 095°01'0 0.0
2017-Dec-14 11:00N 29°36' W 095°01'0 0.0
2017-Dec-14 10:30N 29°36' W 095°01'0 0.0
2017-Dec-14 10:00N 29°36' W 095°01'0 0.0
2017-Dec-14 09:30N 29°36' W 095°01'0 0.0
2017-Dec-14 09:00N 29°36' W 095°01'0 0.0
2017-Dec-14 08:30N 29°36' W 095°01'0 0.0
2017-Dec-14 08:00N 29°36' W 095°01'0 0.0
2017-Dec-14 07:30N 29°36' W 095°01'0 0.0
2017-Dec-14 07:00N 29°36' W 095°01'0 0.0
2017-Dec-14 06:30N 29°36' W 095°01'0 0.0
2017-Dec-14 06:00N 29°36' W 095°01'0 0.0
2017-Dec-14 05:30N 29°36' W 095°01'0 0.0
2017-Dec-14 05:00N 29°36' W 095°01'0 0.1
2017-Dec-14 04:31N 29°36' W 095°01'0 0.0
2017-Dec-14 04:00N 29°36' W 095°01'1 1.0
2017-Dec-14 03:30N 29°37' W 095°01'  
Track history (hours):
 
Tides and Currents Weather Stations Pressure Air Temp Water Temp Dewpoint Dewpoint Depression Visibility Wind Speed Wind Dir Waves Ship Positions

Phyllis E

Owner: Echo Towing Service, Inc., Highlands, TX. More information available from US FCC via Universal Licensing System and Coast Guard Vessel Documentation Center.

Last reported at 2017-Dec-24 03:22 UTC. Time now 2018-Jan-21 22:47 UTC.
Position N 29°30' W 094°52'.
Warning: this ship's position is 28 days out of date.

; draft 2.6 m.

Type: Towing. MMSI: 367640680.

Date/timePositionNaut miles runAvg speedWind from/ knotsBaromVisibWave heightAir tempDewpointWater temp
2017-Dec-24 03:22N 29°30' W 094°52'2 5.9
2017-Dec-24 03:00N 29°32' W 094°54'3 5.6
2017-Dec-24 02:31N 29°34' W 094°55'3 6.2
2017-Dec-24 02:01N 29°37' W 094°57'3 6.3
2017-Dec-24 01:30N 29°40' W 094°59'3 6.0
2017-Dec-24 01:00N 29°42' W 095°01'3 6.0
2017-Dec-24 00:30N 29°44' W 095°03'2 1.5
2017-Dec-23 23:01N 29°46' W 095°05'0 6.3
2017-Dec-23 23:00N 29°46' W 095°05'2 2.7
2017-Dec-23 22:08N 29°44' W 095°03'1 6.1
2017-Dec-23 21:59N 29°44' W 095°02'2 5.0
2017-Dec-23 21:30N 29°42' W 095°01'3 5.3
2017-Dec-23 21:00N 29°40' W 094°59'3 5.8
2017-Dec-23 20:31N 29°37' W 094°57'3 6.8
2017-Dec-23 20:00N 29°34' W 094°56'  
2017-Dec-21 11:58N 29°49' W 093°59'0 0.0
2017-Dec-21 11:28N 29°49' W 093°59'0 0.0
2017-Dec-21 10:59N 29°49' W 093°59'0 0.0
2017-Dec-21 10:25N 29°49' W 093°59'0 0.0
2017-Dec-21 09:53N 29°49' W 093°59'0 0.0
2017-Dec-21 09:25N 29°49' W 093°59'0 0.0
2017-Dec-21 08:59N 29°49' W 093°59'0 0.0
2017-Dec-21 08:21N 29°49' W 093°59'0 0.0
2017-Dec-21 08:00N 29°49' W 093°59'0 0.0
2017-Dec-21 07:30N 29°49' W 093°59'0 0.0
2017-Dec-21 07:00N 29°49' W 093°59'0 0.0
2017-Dec-21 06:29N 29°49' W 093°59'0 0.0
2017-Dec-21 05:59N 29°49' W 093°59'0 0.0
2017-Dec-21 05:30N 29°49' W 093°59'0 0.0
2017-Dec-21 05:00N 29°49' W 093°59'0 0.0
2017-Dec-21 04:30N 29°49' W 093°59'0 0.0
2017-Dec-21 04:00N 29°49' W 093°59'43 3.3
2017-Dec-20 15:04N 29°27' W 094°41'1 4.6
2017-Dec-20 14:57N 29°27' W 094°42'2 3.8
2017-Dec-20 14:28N 29°25' W 094°43'9 0.6
2017-Dec-20 01:09N 29°30' W 094°52'1 5.0
2017-Dec-20 01:00N 29°30' W 094°52'2 4.9
2017-Dec-20 00:30N 29°32' W 094°54'3 5.5
2017-Dec-20 00:00N 29°34' W 094°56'3 5.6
2017-Dec-19 23:30N 29°37' W 094°57'3 5.8
2017-Dec-19 23:00N 29°40' W 094°58'3 5.7
2017-Dec-19 22:30N 29°42' W 095°00'3 5.1
2017-Dec-19 22:00N 29°44' W 095°02'3 5.6
2017-Dec-19 21:30N 29°46' W 095°05'1 0.2
2017-Dec-19 17:17N 29°46' W 095°05'1 2.4
2017-Dec-19 17:00N 29°46' W 095°06'1 0.2
2017-Dec-19 12:23N 29°46' W 095°05'0 0.0
2017-Dec-19 11:55N 29°46' W 095°05'0 0.0
2017-Dec-19 11:30N 29°46' W 095°05'0 0.0
2017-Dec-19 10:55N 29°46' W 095°05'0 0.0
2017-Dec-19 10:16N 29°46' W 095°05'0 0.0
2017-Dec-19 09:55N 29°46' W 095°05'0 0.0
2017-Dec-19 09:26N 29°46' W 095°05'0 0.0
2017-Dec-19 09:00N 29°46' W 095°05'0 0.0
2017-Dec-19 08:30N 29°46' W 095°05'0 0.0
2017-Dec-19 07:58N 29°46' W 095°05'0 0.0
2017-Dec-19 07:15N 29°46' W 095°05'0 0.0
2017-Dec-19 06:58N 29°46' W 095°05'0 0.0
2017-Dec-19 06:30N 29°46' W 095°05'0 0.0
2017-Dec-19 06:00N 29°46' W 095°05'0 0.0
2017-Dec-19 05:27N 29°46' W 095°05'1 1.4
2017-Dec-19 04:30N 29°45' W 095°06'2 4.7
2017-Dec-19 04:00N 29°44' W 095°09'2 3.9
2017-Dec-19 03:27N 29°45' W 095°11'1 1.6
2017-Dec-19 02:58N 29°46' W 095°11'1 2.3
2017-Dec-19 02:19N 29°45' W 095°10'3 5.8
2017-Dec-19 01:44N 29°45' W 095°06'1 3.1
2017-Dec-19 01:28N 29°46' W 095°06'1 0.1
2017-Dec-18 18:21N 29°45' W 095°06'1 1.7
2017-Dec-18 18:00N 29°46' W 095°05'0 0.1
2017-Dec-18 17:30N 29°46' W 095°05'2 0.9
2017-Dec-18 15:20N 29°44' W 095°07'2 7.0
2017-Dec-18 15:00N 29°44' W 095°09'3 6.0
2017-Dec-18 14:30N 29°44' W 095°13'2 3.8
2017-Dec-18 14:00N 29°44' W 095°15'0 0.0
2017-Dec-18 12:34N 29°44' W 095°15'0 0.8
2017-Dec-18 12:30N 29°43' W 095°15'2 4.8
2017-Dec-18 12:00N 29°44' W 095°12'3 5.8
2017-Dec-18 11:29N 29°44' W 095°09'3 6.2
2017-Dec-18 10:59N 29°45' W 095°06'1 0.0
2017-Dec-17 18:54N 29°46' W 095°05'1 1.8
2017-Dec-17 18:10N 29°45' W 095°06'0 0.0
2017-Dec-17 17:57N 29°45' W 095°06'0 0.1
2017-Dec-17 17:29N 29°45' W 095°06'1 3.0
2017-Dec-17 17:00N 29°46' W 095°05'0 0.0
2017-Dec-17 16:17N 29°46' W 095°05'0 0.0
2017-Dec-17 16:00N 29°46' W 095°05'0 0.1
2017-Dec-17 15:18N 29°46' W 095°05'1 0.3
2017-Dec-17 13:03N 29°45' W 095°06'0 6.8
2017-Dec-17 13:00N 29°46' W 095°05'2 0.3
2017-Dec-17 03:34N 29°44' W 095°03'0 7.4
2017-Dec-17 03:30N 29°44' W 095°03'3 5.8
2017-Dec-17 03:00N 29°42' W 095°00'4 7.1
2017-Dec-17 02:30N 29°39' W 094°58'2 4.6
2017-Dec-17 02:00N 29°37' W 094°59'2 4.1
2017-Dec-17 01:30N 29°36' W 095°01'0 0.0
2017-Dec-17 01:00N 29°36' W 095°01'0 0.0
2017-Dec-17 00:30N 29°36' W 095°01'0 0.0
2017-Dec-17 00:00N 29°36' W 095°01'0 0.0
2017-Dec-16 23:30N 29°36' W 095°01'0 0.0
2017-Dec-16 23:00N 29°36' W 095°01'0 0.0
2017-Dec-16 22:30N 29°36' W 095°01'0 0.0
2017-Dec-16 22:00N 29°36' W 095°01'0 0.0
2017-Dec-16 21:30N 29°36' W 095°01'0 0.0
2017-Dec-16 21:00N 29°36' W 095°01'0 0.0
2017-Dec-16 20:30N 29°36' W 095°01'0 0.0
2017-Dec-16 20:00N 29°36' W 095°01'0 0.0
2017-Dec-16 19:30N 29°36' W 095°01'0 0.0
2017-Dec-16 19:00N 29°36' W 095°01'0 0.0
2017-Dec-16 18:30N 29°36' W 095°01'0 0.0
2017-Dec-16 18:00N 29°36' W 095°01'0 0.0
2017-Dec-16 17:30N 29°36' W 095°01'0 0.0
2017-Dec-16 17:00N 29°36' W 095°01'0 0.0
2017-Dec-16 16:30N 29°36' W 095°01'0 0.0
2017-Dec-16 16:00N 29°36' W 095°01'0 0.0
2017-Dec-16 15:30N 29°36' W 095°01'0 0.0
2017-Dec-16 15:00N 29°36' W 095°01'0 0.0
2017-Dec-16 14:30N 29°36' W 095°01'0 0.0
2017-Dec-16 14:00N 29°36' W 095°01'0 0.0
2017-Dec-16 13:30N 29°36' W 095°01'0 0.0
2017-Dec-16 13:00N 29°36' W 095°01'0 0.0
2017-Dec-16 12:30N 29°36' W 095°01'0 0.0
2017-Dec-16 12:00N 29°36' W 095°01'0 0.0
2017-Dec-16 11:30N 29°36' W 095°01'0 0.0
2017-Dec-16 11:00N 29°36' W 095°01'0 0.0
2017-Dec-16 10:30N 29°36' W 095°01'0 0.0
2017-Dec-16 10:00N 29°36' W 095°01'0 0.0
2017-Dec-16 09:30N 29°36' W 095°01'0 0.0
2017-Dec-16 09:00N 29°36' W 095°01'0 0.0
2017-Dec-16 08:30N 29°36' W 095°01'0 0.0
2017-Dec-16 08:00N 29°36' W 095°01'0 0.0
2017-Dec-16 07:30N 29°36' W 095°01'0 0.0
2017-Dec-16 07:00N 29°36' W 095°01'0 0.0
2017-Dec-16 06:30N 29°36' W 095°01'0 0.0
2017-Dec-16 06:00N 29°36' W 095°01'0 0.0
2017-Dec-16 05:30N 29°36' W 095°01'0 0.0
2017-Dec-16 05:00N 29°36' W 095°01'0 0.0
2017-Dec-16 04:30N 29°36' W 095°01'0 0.0
2017-Dec-16 04:00N 29°36' W 095°01'0 0.0
2017-Dec-16 03:30N 29°36' W 095°01'0 0.0
2017-Dec-16 03:00N 29°36' W 095°01'0 0.0
2017-Dec-16 02:30N 29°36' W 095°01'0 0.0
2017-Dec-16 02:00N 29°36' W 095°01'0 0.1
2017-Dec-16 01:30N 29°36' W 095°01'0 0.1
2017-Dec-16 01:00N 29°36' W 095°01'0 0.0
2017-Dec-16 00:30N 29°36' W 095°01'0 0.0
2017-Dec-16 00:00N 29°36' W 095°01'0 0.0
2017-Dec-15 23:30N 29°36' W 095°01'0 0.0
2017-Dec-15 23:00N 29°36' W 095°01'1 2.4
2017-Dec-15 22:30N 29°37' W 094°60'2 4.0
2017-Dec-15 22:00N 29°38' W 094°58'3 5.8
2017-Dec-15 21:30N 29°41' W 094°59'3 5.3
2017-Dec-15 21:00N 29°42' W 095°01'3 5.1
2017-Dec-15 20:30N 29°44' W 095°03'2 5.0
2017-Dec-15 20:00N 29°46' W 095°05'0 0.3
2017-Dec-15 19:27N 29°46' W 095°05'3 2.8
2017-Dec-15 18:33N 29°44' W 095°03'0 6.1
2017-Dec-15 18:30N 29°44' W 095°03'2 4.3
2017-Dec-15 18:00N 29°43' W 095°01'2 4.4
2017-Dec-15 17:30N 29°41' W 094°59'3 5.3
2017-Dec-15 17:00N 29°39' W 094°58'2 4.1
2017-Dec-15 16:30N 29°37' W 094°59'2 4.1
2017-Dec-15 16:00N 29°36' W 095°01'0 0.0
2017-Dec-15 15:30N 29°36' W 095°01'0 0.0
2017-Dec-15 15:00N 29°36' W 095°01'0 0.0
2017-Dec-15 14:30N 29°36' W 095°01'0 0.0
2017-Dec-15 14:00N 29°36' W 095°01'0 0.0
2017-Dec-15 13:30N 29°36' W 095°01'0 0.0
2017-Dec-15 13:00N 29°36' W 095°01'0 0.0
2017-Dec-15 12:30N 29°36' W 095°01'0 0.0
2017-Dec-15 12:00N 29°36' W 095°01'0 0.0
2017-Dec-15 11:30N 29°36' W 095°01'0 0.0
2017-Dec-15 11:00N 29°36' W 095°01'0 0.0
2017-Dec-15 10:30N 29°36' W 095°01'0 0.0
2017-Dec-15 10:00N 29°36' W 095°01'0 0.0
2017-Dec-15 09:30N 29°36' W 095°01'0 0.0
2017-Dec-15 09:00N 29°36' W 095°01'0 0.0
2017-Dec-15 08:30N 29°36' W 095°01'0 0.0
2017-Dec-15 08:00N 29°36' W 095°01'0 0.0
2017-Dec-15 07:30N 29°36' W 095°01'0 0.0
2017-Dec-15 07:00N 29°36' W 095°01'0 0.0
2017-Dec-15 06:30N 29°36' W 095°01'0 0.0
2017-Dec-15 06:00N 29°36' W 095°01'0 0.0
2017-Dec-15 05:30N 29°36' W 095°01'0 0.0
2017-Dec-15 05:00N 29°36' W 095°01'0 0.0
2017-Dec-15 04:30N 29°36' W 095°01'0 0.0
2017-Dec-15 04:00N 29°36' W 095°01'0 0.0
2017-Dec-15 02:30N 29°36' W 095°01'0 0.0
2017-Dec-15 01:00N 29°36' W 095°01'0 0.0
2017-Dec-15 00:30N 29°36' W 095°01'0 0.0
2017-Dec-14 18:31N 29°36' W 095°01'0 0.0
2017-Dec-14 18:00N 29°36' W 095°01'0 0.0
2017-Dec-14 17:30N 29°36' W 095°01'0 0.0
2017-Dec-14 17:00N 29°36' W 095°01'0 0.0
2017-Dec-14 16:30N 29°36' W 095°01'0 0.0
2017-Dec-14 16:00N 29°36' W 095°01'0 0.0
2017-Dec-14 15:00N 29°36' W 095°01'0 0.0
2017-Dec-14 14:30N 29°36' W 095°01'0 0.0
2017-Dec-14 14:00N 29°36' W 095°01'0 0.0
2017-Dec-14 13:30N 29°36' W 095°01'0 0.0
2017-Dec-14 13:00N 29°36' W 095°01'0 0.0
2017-Dec-14 12:30N 29°36' W 095°01'0 0.0
2017-Dec-14 12:00N 29°36' W 095°01'0 0.0
2017-Dec-14 11:30N 29°36' W 095°01'0 0.0
2017-Dec-14 11:00N 29°36' W 095°01'0 0.0
2017-Dec-14 10:30N 29°36' W 095°01'0 0.0
2017-Dec-14 10:00N 29°36' W 095°01'0 0.0
2017-Dec-14 09:30N 29°36' W 095°01'0 0.0
2017-Dec-14 09:00N 29°36' W 095°01'0 0.0
2017-Dec-14 08:30N 29°36' W 095°01'0 0.0
2017-Dec-14 08:00N 29°36' W 095°01'0 0.0
2017-Dec-14 07:30N 29°36' W 095°01'0 0.0
2017-Dec-14 07:00N 29°36' W 095°01'0 0.0
2017-Dec-14 06:30N 29°36' W 095°01'0 0.0
2017-Dec-14 06:00N 29°36' W 095°01'0 0.0
2017-Dec-14 05:30N 29°36' W 095°01'0 0.0
2017-Dec-14 05:00N 29°36' W 095°01'0 0.1
2017-Dec-14 04:31N 29°36' W 095°01'0 0.0
2017-Dec-14 04:00N 29°36' W 095°01'1 1.0
2017-Dec-14 03:30N 29°37' W 095°01'  

Dump ship's entire track history